createdAt,value
2016-05-19T00:00:04.835Z,0
2016-05-19T00:01:05.026Z,0
2016-05-19T00:02:05.075Z,0
2016-05-19T00:03:04.953Z,0
2016-05-19T00:04:05.143Z,0
2016-05-19T00:05:05.192Z,0
2016-05-19T00:06:05.226Z,0
2016-05-19T00:07:05.244Z,0
2016-05-19T00:08:05.200Z,0
2016-05-19T00:09:05.172Z,0
2016-05-19T00:10:05.362Z,0
2016-05-19T00:11:05.412Z,0
2016-05-19T00:12:05.289Z,0
2016-05-19T00:13:05.323Z,0
2016-05-19T00:14:05.514Z,0
2016-05-19T00:15:05.564Z,0
2016-05-19T00:16:05.597Z,0
2016-05-19T00:17:05.631Z,0
2016-05-19T00:18:05.666Z,0
2016-05-19T00:19:05.714Z,0
2016-05-19T00:20:05.983Z,0
2016-05-19T00:21:05.626Z,0
2016-05-19T00:22:05.832Z,0
2016-05-19T00:23:06.350Z,0
2016-05-19T00:24:05.743Z,0
2016-05-19T00:25:05.778Z,0
2016-05-19T00:26:05.812Z,0
2016-05-19T00:27:06.001Z,0
2016-05-19T00:28:06.035Z,0
2016-05-19T00:29:06.070Z,0
2016-05-19T00:30:05.963Z,0
2016-05-19T00:31:06.153Z,0
2016-05-19T00:32:06.046Z,0
2016-05-19T00:33:06.220Z,0
2016-05-19T00:34:06.286Z,0
2016-05-19T00:35:06.164Z,0
2016-05-19T00:36:06.339Z,0
2016-05-19T00:37:06.373Z,0
2016-05-19T00:38:06.765Z,0
2016-05-19T00:39:06.440Z,0
2016-05-19T00:40:06.490Z,0
2016-05-19T00:41:06.539Z,0
2016-05-19T00:42:06.558Z,0
2016-05-19T00:43:06.608Z,0
2016-05-19T00:44:06.641Z,0
2016-05-19T00:45:06.675Z,0
2016-05-19T00:46:06.709Z,0
2016-05-19T00:47:06.743Z,0
2016-05-19T00:48:06.777Z,0
2016-05-19T00:49:06.827Z,0
2016-05-19T00:50:06.860Z,0
2016-05-19T00:51:06.910Z,0
2016-05-19T00:52:06.944Z,0
2016-05-19T00:53:07.259Z,0
2016-05-19T00:54:07.012Z,0
2016-05-19T00:55:07.046Z,0
2016-05-19T00:56:07.080Z,0
2016-05-19T00:57:07.114Z,0
2016-05-19T00:58:07.163Z,0
2016-05-19T00:59:07.212Z,0
2016-05-19T01:00:07.232Z,0
2016-05-19T01:01:07.265Z,0
2016-05-19T01:02:07.158Z,0
2016-05-19T01:03:07.192Z,0
2016-05-19T01:04:07.398Z,0
2016-05-19T01:05:07.417Z,0
2016-05-19T01:06:07.466Z,0
2016-05-19T01:07:07.328Z,0
2016-05-19T01:08:07.706Z,0
2016-05-19T01:09:07.412Z,0
2016-05-19T01:10:07.601Z,0
2016-05-19T01:11:07.636Z,0
2016-05-19T01:12:07.685Z,0
2016-05-19T01:13:07.719Z,0
2016-05-19T01:14:07.753Z,0
2016-05-19T01:15:07.803Z,0
2016-05-19T01:16:07.821Z,0
2016-05-19T01:17:07.855Z,0
2016-05-19T01:18:07.905Z,0
2016-05-19T01:19:07.955Z,0
2016-05-19T01:20:07.816Z,0
2016-05-19T01:21:08.005Z,0
2016-05-19T01:22:08.072Z,0
2016-05-19T01:23:07.950Z,0
2016-05-19T01:24:08.124Z,0
2016-05-19T01:25:08.173Z,0
2016-05-19T01:26:08.207Z,0
2016-05-19T01:27:08.241Z,0
2016-05-19T01:28:08.275Z,0
2016-05-19T01:29:08.309Z,0
2016-05-19T01:30:08.187Z,0
2016-05-19T01:31:08.408Z,0
2016-05-19T01:32:08.426Z,0
2016-05-19T01:33:08.476Z,0
2016-05-19T01:34:08.495Z,0
2016-05-19T01:35:08.543Z,0
2016-05-19T01:36:08.578Z,0
2016-05-19T01:37:08.628Z,0
2016-05-19T01:38:08.661Z,0
2016-05-19T01:39:08.524Z,0
2016-05-19T01:40:08.572Z,0
2016-05-19T01:41:08.778Z,0
2016-05-19T01:42:08.797Z,0
2016-05-19T01:43:08.831Z,0
2016-05-19T01:44:08.865Z,0
2016-05-19T01:45:08.759Z,0
2016-05-19T01:46:08.948Z,0
2016-05-19T01:47:08.983Z,0
2016-05-19T01:48:08.860Z,0
2016-05-19T01:49:09.081Z,0
2016-05-19T01:50:09.100Z,0
2016-05-19T01:51:08.978Z,0
2016-05-19T01:52:09.011Z,0
2016-05-19T01:53:09.749Z,0
2016-05-19T01:54:09.080Z,0
2016-05-19T01:55:09.285Z,0
2016-05-19T01:56:09.319Z,0
2016-05-19T01:57:09.353Z,0
2016-05-19T01:58:09.262Z,0
2016-05-19T01:59:09.265Z,0
2016-05-19T02:00:09.471Z,0
2016-05-19T02:01:09.504Z,0
2016-05-19T02:02:09.554Z,0
2016-05-19T02:03:09.572Z,0
2016-05-19T02:04:09.481Z,0
2016-05-19T02:05:09.500Z,0
2016-05-19T02:06:09.690Z,0
2016-05-19T02:07:09.583Z,0
2016-05-19T02:08:09.617Z,0
2016-05-19T02:09:09.807Z,0
2016-05-19T02:10:09.670Z,0
2016-05-19T02:11:09.876Z,0
2016-05-19T02:12:09.925Z,0
2016-05-19T02:13:09.959Z,0
2016-05-19T02:14:09.978Z,0
2016-05-19T02:15:09.870Z,0
2016-05-19T02:16:10.061Z,0
2016-05-19T02:17:10.094Z,0
2016-05-19T02:18:09.988Z,0
2016-05-19T02:19:10.178Z,0
2016-05-19T02:20:10.211Z,0
2016-05-19T02:21:10.246Z,0
2016-05-19T02:22:10.280Z,0
2016-05-19T02:23:10.266Z,0
2016-05-19T02:24:10.410Z,0
2016-05-19T02:25:10.389Z,0
2016-05-19T02:26:10.455Z,0
2016-05-19T02:27:10.472Z,0
2016-05-19T02:28:10.507Z,0
2016-05-19T02:29:10.541Z,0
2016-05-19T02:30:10.575Z,0
2016-05-19T02:31:10.624Z,0
2016-05-19T02:32:10.658Z,0
2016-05-19T02:33:10.692Z,0
2016-05-19T02:34:10.726Z,0
2016-05-19T02:35:10.760Z,0
2016-05-19T02:36:10.810Z,0
2016-05-19T02:37:10.843Z,0
2016-05-19T02:38:11.143Z,0
2016-05-19T02:39:10.771Z,0
2016-05-19T02:40:10.820Z,0
2016-05-19T02:41:10.867Z,0
2016-05-19T02:42:11.100Z,0
2016-05-19T02:43:10.880Z,0
2016-05-19T02:44:11.115Z,0
2016-05-19T02:45:11.348Z,0
2016-05-19T02:46:11.407Z,0
2016-05-19T02:47:11.473Z,0
2016-05-19T02:48:11.505Z,0
2016-05-19T02:49:11.555Z,0
2016-05-19T02:50:11.620Z,0
2016-05-19T02:51:11.663Z,0
2016-05-19T02:52:11.703Z,0
2016-05-19T02:53:11.931Z,0
2016-05-19T02:54:12.047Z,0
2016-05-19T02:55:11.822Z,0
2016-05-19T02:56:11.874Z,0
2016-05-19T02:57:11.770Z,0
2016-05-19T02:58:11.805Z,0
2016-05-19T02:59:11.982Z,0
2016-05-19T03:00:12.034Z,0
2016-05-19T03:01:12.069Z,0
2016-05-19T03:02:11.963Z,0
2016-05-19T03:03:12.138Z,0
2016-05-19T03:04:12.189Z,0
2016-05-19T03:05:12.223Z,0
2016-05-19T03:06:12.102Z,0
2016-05-19T03:07:12.136Z,0
2016-05-19T03:08:12.607Z,0
2016-05-19T03:09:12.361Z,0
2016-05-19T03:10:12.425Z,0
2016-05-19T03:11:12.444Z,0
2016-05-19T03:12:12.494Z,0
2016-05-19T03:13:12.513Z,0
2016-05-19T03:14:12.250Z,0
2016-05-19T03:15:12.284Z,0
2016-05-19T03:16:12.630Z,0
2016-05-19T03:17:12.664Z,0
2016-05-19T03:18:12.402Z,0
2016-05-19T03:19:12.747Z,0
2016-05-19T03:20:12.641Z,0
2016-05-19T03:21:12.675Z,0
2016-05-19T03:22:12.693Z,0
2016-05-19T03:23:12.743Z,0
2016-05-19T03:24:12.932Z,0
2016-05-19T03:25:12.810Z,0
2016-05-19T03:26:12.844Z,0
2016-05-19T03:27:13.034Z,0
2016-05-19T03:28:12.912Z,0
2016-05-19T03:29:13.102Z,0
2016-05-19T03:30:13.168Z,0
2016-05-19T03:31:13.186Z,0
2016-05-19T03:32:13.220Z,0
2016-05-19T03:33:13.270Z,0
2016-05-19T03:34:13.304Z,0
2016-05-19T03:35:13.338Z,0
2016-05-19T03:36:13.356Z,0
2016-05-19T03:37:13.406Z,0
2016-05-19T03:38:14.345Z,0
2016-05-19T03:39:13.488Z,0
2016-05-19T03:40:13.523Z,0
2016-05-19T03:41:13.572Z,0
2016-05-19T03:42:13.606Z,0
2016-05-19T03:43:13.483Z,0
2016-05-19T03:44:13.502Z,0
2016-05-19T03:45:13.708Z,0
2016-05-19T03:46:13.741Z,0
2016-05-19T03:47:13.619Z,0
2016-05-19T03:48:13.669Z,0
2016-05-19T03:49:13.844Z,0
2016-05-19T03:50:13.738Z,0
2016-05-19T03:51:13.927Z,0
2016-05-19T03:52:13.977Z,0
2016-05-19T03:53:14.199Z,0
2016-05-19T03:54:13.889Z,0
2016-05-19T03:55:13.907Z,0
2016-05-19T03:56:14.113Z,0
2016-05-19T03:57:14.146Z,0
2016-05-19T03:58:14.212Z,0
2016-05-19T03:59:14.230Z,5
2016-05-19T04:00:14.264Z,5
2016-05-19T04:01:14.298Z,5
2016-05-19T04:02:14.190Z,5
2016-05-19T04:03:14.365Z,5
2016-05-19T04:04:14.259Z,5
2016-05-19T04:05:14.449Z,5
2016-05-19T04:06:14.483Z,5
2016-05-19T04:07:14.517Z,5
2016-05-19T04:08:15.098Z,5
2016-05-19T04:09:14.445Z,5
2016-05-19T04:10:14.635Z,5
2016-05-19T04:11:14.669Z,5
2016-05-19T04:12:14.734Z,5
2016-05-19T04:13:14.612Z,5
2016-05-19T04:14:14.786Z,5
2016-05-19T04:15:14.819Z,5
2016-05-19T04:16:14.869Z,5
2016-05-19T04:17:14.888Z,5
2016-05-19T04:18:14.922Z,5
2016-05-19T04:19:14.971Z,10
2016-05-19T04:20:15.005Z,10
2016-05-19T04:21:14.898Z,10
2016-05-19T04:22:15.073Z,10
2016-05-19T04:23:15.388Z,10
2016-05-19T04:24:15.157Z,10
2016-05-19T04:25:15.191Z,10
2016-05-19T04:26:15.240Z,10
2016-05-19T04:27:15.258Z,10
2016-05-19T04:28:15.308Z,10
2016-05-19T04:29:15.327Z,15
2016-05-19T04:30:15.376Z,15
2016-05-19T04:31:15.410Z,15
2016-05-19T04:32:15.460Z,15
2016-05-19T04:33:15.321Z,15
2016-05-19T04:34:15.371Z,15
2016-05-19T04:35:15.561Z,15
2016-05-19T04:36:15.595Z,20
2016-05-19T04:37:15.473Z,20
2016-05-19T04:38:15.959Z,20
2016-05-19T04:39:15.541Z,20
2016-05-19T04:40:15.747Z,20
2016-05-19T04:41:15.780Z,20
2016-05-19T04:42:15.831Z,20
2016-05-19T04:43:15.848Z,20
2016-05-19T04:44:15.726Z,20
2016-05-19T04:45:15.931Z,20
2016-05-19T04:46:15.966Z,20
2016-05-19T04:47:15.999Z,25
2016-05-19T04:48:16.034Z,25
2016-05-19T04:49:16.083Z,25
2016-05-19T04:50:16.117Z,20
2016-05-19T04:51:16.152Z,20
2016-05-19T04:52:16.200Z,20
2016-05-19T04:53:16.094Z,25
2016-05-19T04:54:16.127Z,25
2016-05-19T04:55:16.303Z,25
2016-05-19T04:56:16.336Z,25
2016-05-19T04:57:16.370Z,30
2016-05-19T04:58:16.405Z,30
2016-05-19T04:59:16.438Z,30
2016-05-19T05:00:16.488Z,35
2016-05-19T05:01:16.522Z,35
2016-05-19T05:02:16.571Z,35
2016-05-19T05:03:16.605Z,35
2016-05-19T05:04:16.623Z,35
2016-05-19T05:05:16.532Z,35
2016-05-19T05:06:16.567Z,35
2016-05-19T05:07:16.741Z,40
2016-05-19T05:08:17.056Z,40
2016-05-19T05:09:16.809Z,40
2016-05-19T05:10:16.843Z,40
2016-05-19T05:11:16.892Z,40
2016-05-19T05:12:16.942Z,40
2016-05-19T05:13:16.961Z,40
2016-05-19T05:14:16.995Z,45
2016-05-19T05:15:17.044Z,45
2016-05-19T05:16:17.094Z,45
2016-05-19T05:17:17.128Z,45
2016-05-19T05:18:17.005Z,45
2016-05-19T05:19:17.055Z,45
2016-05-19T05:20:17.230Z,45
2016-05-19T05:21:17.107Z,45
2016-05-19T05:22:17.297Z,45
2016-05-19T05:23:16.908Z,45
2016-05-19T05:24:18.224Z,45
2016-05-19T05:25:17.275Z,45
2016-05-19T05:26:17.308Z,45
2016-05-19T05:27:17.482Z,45
2016-05-19T05:28:17.547Z,45
2016-05-19T05:29:17.254Z,50
2016-05-19T05:30:17.616Z,50
2016-05-19T05:31:17.493Z,50
2016-05-19T05:32:17.527Z,50
2016-05-19T05:33:17.733Z,50
2016-05-19T05:34:17.751Z,50
2016-05-19T05:35:17.785Z,50
2016-05-19T05:36:17.866Z,50
2016-05-19T05:37:17.853Z,50
2016-05-19T05:38:17.856Z,50
2016-05-19T05:39:17.796Z,55
2016-05-19T05:40:17.971Z,55
2016-05-19T05:41:18.020Z,55
2016-05-19T05:42:18.054Z,55
2016-05-19T05:43:18.104Z,55
2016-05-19T05:44:17.966Z,55
2016-05-19T05:45:18.156Z,55
2016-05-19T05:46:18.206Z,55
2016-05-19T05:47:18.083Z,55
2016-05-19T05:48:18.273Z,50
2016-05-19T05:49:18.322Z,50
2016-05-19T05:50:18.342Z,50
2016-05-19T05:51:18.234Z,50
2016-05-19T05:52:18.425Z,50
2016-05-19T05:53:19.803Z,50
2016-05-19T05:54:18.352Z,50
2016-05-19T05:55:18.386Z,50
2016-05-19T05:56:18.420Z,50
2016-05-19T05:57:18.454Z,50
2016-05-19T05:58:18.644Z,50
2016-05-19T05:59:18.677Z,50
2016-05-19T06:00:18.743Z,50
2016-05-19T06:01:18.465Z,50
2016-05-19T06:02:18.499Z,50
2016-05-19T06:03:18.830Z,55
2016-05-19T06:04:18.879Z,55
2016-05-19T06:05:18.913Z,55
2016-05-19T06:06:18.791Z,55
2016-05-19T06:07:18.981Z,50
2016-05-19T06:08:18.718Z,50
2016-05-19T06:09:19.064Z,50
2016-05-19T06:10:19.098Z,50
2016-05-19T06:11:19.132Z,50
2016-05-19T06:12:19.009Z,50
2016-05-19T06:13:19.215Z,50
2016-05-19T06:14:19.093Z,50
2016-05-19T06:15:19.299Z,50
2016-05-19T06:16:19.162Z,50
2016-05-19T06:17:19.195Z,55
2016-05-19T06:18:19.432Z,55
2016-05-19T06:19:19.450Z,55
2016-05-19T06:20:19.469Z,55
2016-05-19T06:21:19.518Z,55
2016-05-19T06:22:19.553Z,55
2016-05-19T06:23:20.852Z,55
2016-05-19T06:24:19.620Z,55
2016-05-19T06:25:19.670Z,55
2016-05-19T06:26:19.548Z,55
2016-05-19T06:27:19.753Z,55
2016-05-19T06:28:19.771Z,55
2016-05-19T06:29:19.805Z,55
2016-05-19T06:30:19.855Z,55
2016-05-19T06:31:19.888Z,55
2016-05-19T06:32:19.924Z,55
2016-05-19T06:33:19.816Z,55
2016-05-19T06:34:19.835Z,55
2016-05-19T06:35:19.885Z,55
2016-05-19T06:36:19.918Z,55
2016-05-19T06:37:20.124Z,55
2016-05-19T06:38:20.173Z,50
2016-05-19T06:39:20.192Z,50
2016-05-19T06:40:20.226Z,50
2016-05-19T06:41:20.276Z,50
2016-05-19T06:42:20.293Z,50
2016-05-19T06:43:20.343Z,50
2016-05-19T06:44:20.377Z,50
2016-05-19T06:45:20.412Z,50
2016-05-19T06:46:20.461Z,50
2016-05-19T06:47:20.495Z,55
2016-05-19T06:48:20.529Z,55
2016-05-19T06:49:20.562Z,55
2016-05-19T06:50:20.596Z,55
2016-05-19T06:51:20.630Z,60
2016-05-19T06:52:20.664Z,60
2016-05-19T06:53:20.730Z,65
2016-05-19T06:54:20.764Z,65
2016-05-19T06:55:20.641Z,65
2016-05-19T06:56:20.691Z,70
2016-05-19T06:57:20.741Z,70
2016-05-19T06:58:20.900Z,70
2016-05-19T06:59:20.620Z,70
2016-05-19T07:00:20.983Z,70
2016-05-19T07:01:21.032Z,70
2016-05-19T07:02:20.910Z,70
2016-05-19T07:03:21.084Z,70
2016-05-19T07:04:21.118Z,70
2016-05-19T07:05:21.168Z,70
2016-05-19T07:06:21.218Z,70
2016-05-19T07:07:21.235Z,70
2016-05-19T07:08:21.285Z,70
2016-05-19T07:09:21.319Z,70
2016-05-19T07:10:21.368Z,70
2016-05-19T07:11:21.387Z,70
2016-05-19T07:12:21.265Z,70
2016-05-19T07:13:21.470Z,70
2016-05-19T07:14:21.520Z,70
2016-05-19T07:15:21.539Z,65
2016-05-19T07:16:21.587Z,65
2016-05-19T07:17:21.622Z,65
2016-05-19T07:18:21.672Z,65
2016-05-19T07:19:21.534Z,60
2016-05-19T07:20:21.739Z,60
2016-05-19T07:21:21.617Z,60
2016-05-19T07:22:21.823Z,55
2016-05-19T07:23:21.700Z,55
2016-05-19T07:24:21.891Z,50
2016-05-19T07:25:21.941Z,50
2016-05-19T07:26:21.990Z,50
2016-05-19T07:27:22.008Z,45
2016-05-19T07:28:22.042Z,45
2016-05-19T07:29:22.077Z,45
2016-05-19T07:30:21.986Z,40
2016-05-19T07:31:22.144Z,40
2016-05-19T07:32:24.335Z,45
2016-05-19T07:33:22.243Z,40
2016-05-19T07:34:22.261Z,45
2016-05-19T07:35:22.296Z,45
2016-05-19T07:36:22.189Z,45
2016-05-19T07:37:22.582Z,45
2016-05-19T07:38:22.460Z,45
2016-05-19T07:39:22.446Z,45
2016-05-19T07:40:22.512Z,45
2016-05-19T07:41:23.812Z,45
2016-05-19T07:42:22.564Z,45
2016-05-19T07:43:22.598Z,45
2016-05-19T07:44:22.663Z,45
2016-05-19T07:45:22.697Z,45
2016-05-19T07:46:22.716Z,50
2016-05-19T07:47:22.765Z,50
2016-05-19T07:48:22.798Z,50
2016-05-19T07:49:22.834Z,55
2016-05-19T07:50:22.868Z,50
2016-05-19T07:51:22.761Z,50
2016-05-19T07:52:22.951Z,50
2016-05-19T07:53:22.687Z,45
2016-05-19T07:54:23.019Z,50
2016-05-19T07:55:23.067Z,50
2016-05-19T07:56:23.086Z,50
2016-05-19T07:57:23.136Z,50
2016-05-19T07:58:23.014Z,50
2016-05-19T07:59:23.203Z,50
2016-05-19T08:00:23.238Z,50
2016-05-19T08:01:23.288Z,50
2016-05-19T08:02:23.321Z,50
2016-05-19T08:03:23.199Z,50
2016-05-19T08:04:23.404Z,50
2016-05-19T08:05:23.438Z,50
2016-05-19T08:06:23.332Z,50
2016-05-19T08:07:23.507Z,50
2016-05-19T08:08:23.791Z,50
2016-05-19T08:09:23.591Z,50
2016-05-19T08:10:23.608Z,55
2016-05-19T08:11:23.658Z,55
2016-05-19T08:12:23.535Z,55
2016-05-19T08:13:23.741Z,55
2016-05-19T08:14:23.776Z,60
2016-05-19T08:15:23.653Z,60
2016-05-19T08:16:23.859Z,60
2016-05-19T08:17:23.893Z,60
2016-05-19T08:18:23.927Z,55
2016-05-19T08:19:23.961Z,55
2016-05-19T08:20:23.995Z,55
2016-05-19T08:21:24.044Z,55
2016-05-19T08:22:24.265Z,55
2016-05-19T08:23:24.237Z,60
2016-05-19T08:24:24.224Z,60
2016-05-19T08:25:24.336Z,60
2016-05-19T08:26:24.072Z,55
2016-05-19T08:27:24.388Z,55
2016-05-19T08:28:24.297Z,55
2016-05-19T08:29:24.347Z,55
2016-05-19T08:30:24.444Z,55
2016-05-19T08:31:24.539Z,50
2016-05-19T08:32:24.449Z,55
2016-05-19T08:33:24.499Z,55
2016-05-19T08:34:24.532Z,55
2016-05-19T08:35:24.567Z,55
2016-05-19T08:36:24.678Z,55
2016-05-19T08:37:24.494Z,55
2016-05-19T08:38:24.855Z,55
2016-05-19T08:39:24.733Z,55
2016-05-19T08:40:25.001Z,55
2016-05-19T08:41:24.910Z,55
2016-05-19T08:42:24.851Z,55
2016-05-19T08:43:25.010Z,55
2016-05-19T08:44:24.904Z,55
2016-05-19T08:45:24.812Z,55
2016-05-19T08:46:24.830Z,55
2016-05-19T08:47:25.020Z,55
2016-05-19T08:48:24.914Z,55
2016-05-19T08:49:25.103Z,55
2016-05-19T08:50:25.137Z,55
2016-05-19T08:51:25.172Z,55
2016-05-19T08:52:25.221Z,55
2016-05-19T08:53:25.598Z,60
2016-05-19T08:54:25.305Z,60
2016-05-19T08:55:25.370Z,60
2016-05-19T08:56:25.357Z,60
2016-05-19T08:57:25.406Z,60
2016-05-19T08:58:25.441Z,60
2016-05-19T08:59:25.489Z,60
2016-05-19T09:00:25.524Z,60
2016-05-19T09:01:25.558Z,60
2016-05-19T09:02:25.608Z,60
2016-05-19T09:03:25.642Z,60
2016-05-19T09:04:25.675Z,60
2016-05-19T09:05:25.710Z,60
2016-05-19T09:06:25.822Z,60
2016-05-19T09:07:25.793Z,60
2016-05-19T09:08:26.232Z,60
2016-05-19T09:09:25.876Z,60
2016-05-19T09:10:26.207Z,60
2016-05-19T09:11:25.944Z,60
2016-05-19T09:12:25.978Z,60
2016-05-19T09:13:26.153Z,60
2016-05-19T09:14:26.109Z,65
2016-05-19T09:15:26.095Z,65
2016-05-19T09:16:26.146Z,65
2016-05-19T09:17:26.179Z,65
2016-05-19T09:18:26.213Z,65
2016-05-19T09:19:26.247Z,65
2016-05-19T09:20:26.282Z,65
2016-05-19T09:21:26.331Z,65
2016-05-19T09:22:40.351Z,65
2016-05-19T09:23:26.414Z,65
2016-05-19T09:24:26.448Z,65
2016-05-19T09:25:26.310Z,65
2016-05-19T09:26:26.516Z,65
2016-05-19T09:27:26.440Z,65
2016-05-19T09:28:26.599Z,65
2016-05-19T09:29:26.461Z,65
2016-05-19T09:30:26.527Z,65
2016-05-19T09:31:26.561Z,70
2016-05-19T09:32:26.767Z,65
2016-05-19T09:33:26.628Z,65
2016-05-19T09:34:26.663Z,65
2016-05-19T09:35:26.852Z,65
2016-05-19T09:36:26.902Z,75
2016-05-19T09:37:26.935Z,75
2016-05-19T09:38:26.830Z,80
2016-05-19T09:39:26.708Z,85
2016-05-19T09:40:26.897Z,85
2016-05-19T09:41:27.088Z,85
2016-05-19T09:42:26.965Z,85
2016-05-19T09:43:27.155Z,85
2016-05-19T09:44:27.205Z,80
2016-05-19T09:45:27.238Z,80
2016-05-19T09:46:27.273Z,85
2016-05-19T09:47:27.323Z,85
2016-05-19T09:48:27.357Z,85
2016-05-19T09:49:27.406Z,85
2016-05-19T09:50:27.440Z,85
2016-05-19T09:51:27.334Z,90
2016-05-19T09:52:27.507Z,90
2016-05-19T09:53:28.229Z,90
2016-05-19T09:54:27.592Z,90
2016-05-19T09:55:27.625Z,90
2016-05-19T09:56:27.659Z,90
2016-05-19T09:57:27.693Z,90
2016-05-19T09:58:27.727Z,85
2016-05-19T09:59:27.776Z,85
2016-05-19T10:00:27.811Z,90
2016-05-19T10:01:27.860Z,95
2016-05-19T10:02:27.738Z,95
2016-05-19T10:03:27.944Z,90
2016-05-19T10:04:27.962Z,95
2016-05-19T10:05:27.996Z,90
2016-05-19T10:06:28.045Z,95
2016-05-19T10:07:28.080Z,95
2016-05-19T10:08:27.848Z,95
2016-05-19T10:09:28.178Z,95
2016-05-19T10:10:28.416Z,95
2016-05-19T10:11:28.043Z,90
2016-05-19T10:12:28.186Z,90
2016-05-19T10:13:28.314Z,90
2016-05-19T10:14:28.349Z,90
2016-05-19T10:15:28.398Z,90
2016-05-19T10:16:28.432Z,90
2016-05-19T10:17:28.466Z,90
2016-05-19T10:18:28.499Z,90
2016-05-19T10:19:28.393Z,90
2016-05-19T10:20:28.583Z,95
2016-05-19T10:21:28.461Z,95
2016-05-19T10:22:28.667Z,90
2016-05-19T10:23:28.935Z,90
2016-05-19T10:24:28.843Z,85
2016-05-19T10:25:28.815Z,90
2016-05-19T10:26:28.834Z,90
2016-05-19T10:27:28.868Z,90
2016-05-19T10:28:28.886Z,90
2016-05-19T10:29:28.920Z,90
2016-05-19T10:30:28.970Z,95
2016-05-19T10:31:29.003Z,100
2016-05-19T10:32:29.037Z,100
2016-05-19T10:33:29.087Z,95
2016-05-19T10:34:29.121Z,95
2016-05-19T10:35:29.170Z,95
2016-05-19T10:36:29.205Z,90
2016-05-19T10:37:29.082Z,90
2016-05-19T10:38:29.225Z,85
2016-05-19T10:39:29.150Z,80
2016-05-19T10:40:29.341Z,80
2016-05-19T10:41:29.374Z,80
2016-05-19T10:42:29.424Z,80
2016-05-19T10:43:29.317Z,90
2016-05-19T10:44:29.507Z,85
2016-05-19T10:45:29.385Z,85
2016-05-19T10:46:29.575Z,85
2016-05-19T10:47:29.625Z,85
2016-05-19T10:48:29.658Z,90
2016-05-19T10:49:29.693Z,90
2016-05-19T10:50:29.445Z,90
2016-05-19T10:51:29.760Z,95
2016-05-19T10:52:29.810Z,100
2016-05-19T10:53:29.876Z,95
2016-05-19T10:54:29.893Z,100
2016-05-19T10:55:29.787Z,105
2016-05-19T10:56:29.805Z,110
2016-05-19T10:57:30.026Z,115
2016-05-19T10:58:29.888Z,120
2016-05-19T10:59:30.095Z,120
2016-05-19T11:00:30.129Z,120
2016-05-19T11:01:30.162Z,110
2016-05-19T11:02:30.196Z,110
2016-05-19T11:03:30.230Z,110
2016-05-19T11:04:30.280Z,110
2016-05-19T11:05:30.313Z,110
2016-05-19T11:06:30.363Z,110
2016-05-19T11:07:30.397Z,110
2016-05-19T11:08:29.978Z,115
2016-05-19T11:09:30.465Z,120
2016-05-19T11:10:30.499Z,120
2016-05-19T11:11:30.548Z,125
2016-05-19T11:12:30.597Z,130
2016-05-19T11:13:31.164Z,130
2016-05-19T11:14:30.650Z,130
2016-05-19T11:15:30.700Z,135
2016-05-19T11:16:30.796Z,135
2016-05-19T11:17:30.627Z,135
2016-05-19T11:18:31.207Z,130
2016-05-19T11:19:30.851Z,130
2016-05-19T11:20:30.901Z,130
2016-05-19T11:21:30.935Z,125
2016-05-19T11:22:30.984Z,130
2016-05-19T11:23:32.018Z,130
2016-05-19T11:24:30.896Z,130
2016-05-19T11:25:30.790Z,135
2016-05-19T11:26:31.026Z,135
2016-05-19T11:27:31.170Z,135
2016-05-19T11:28:33.657Z,135
2016-05-19T11:29:31.113Z,135
2016-05-19T11:30:31.287Z,140
2016-05-19T11:31:31.321Z,140
2016-05-19T11:32:31.058Z,140
2016-05-19T11:33:31.404Z,140
2016-05-19T11:34:31.453Z,140
2016-05-19T11:35:31.488Z,140
2016-05-19T11:36:31.522Z,140
2016-05-19T11:37:31.556Z,140
2016-05-19T11:38:34.886Z,145
2016-05-19T11:39:31.499Z,145
2016-05-19T11:40:31.672Z,145
2016-05-19T11:41:31.722Z,150
2016-05-19T11:42:31.758Z,150
2016-05-19T11:43:33.369Z,155
2016-05-19T11:44:31.840Z,155
2016-05-19T11:45:31.733Z,150
2016-05-19T11:46:31.908Z,150
2016-05-19T11:47:31.980Z,150
2016-05-19T11:48:34.116Z,145
2016-05-19T11:49:32.175Z,155
2016-05-19T11:50:32.234Z,150
2016-05-19T11:51:32.339Z,155
2016-05-19T11:52:32.203Z,160
2016-05-19T11:53:33.657Z,150
2016-05-19T11:54:32.330Z,165
2016-05-19T11:55:32.519Z,155
2016-05-19T11:56:32.583Z,170
2016-05-19T11:57:32.623Z,165
2016-05-19T11:58:32.678Z,170
2016-05-19T11:59:32.718Z,160
2016-05-19T12:00:32.758Z,145
2016-05-19T12:01:32.797Z,145
2016-05-19T12:02:32.677Z,140
2016-05-19T12:03:33.415Z,135
2016-05-19T12:04:32.779Z,135
2016-05-19T12:05:32.971Z,135
2016-05-19T12:06:33.008Z,155
2016-05-19T12:07:36.057Z,150
2016-05-19T12:08:35.140Z,160
2016-05-19T12:09:33.346Z,165
2016-05-19T12:10:33.161Z,180
2016-05-19T12:11:33.259Z,160
2016-05-19T12:12:33.262Z,165
2016-05-19T12:13:33.890Z,185
2016-05-19T12:14:33.596Z,185
2016-05-19T12:15:35.677Z,180
2016-05-19T12:16:33.400Z,175
2016-05-19T12:17:33.277Z,170
2016-05-19T12:18:35.733Z,165
2016-05-19T12:19:33.517Z,160
2016-05-19T12:20:33.566Z,140
2016-05-19T12:21:33.599Z,145
2016-05-19T12:22:33.634Z,175
2016-05-19T12:23:35.090Z,150
2016-05-19T12:24:33.421Z,140
2016-05-19T12:25:33.751Z,135
2016-05-19T12:26:33.801Z,135
2016-05-19T12:27:33.866Z,135
2016-05-19T12:28:36.151Z,135
2016-05-19T12:29:33.950Z,140
2016-05-19T12:30:33.796Z,120
2016-05-19T12:31:33.846Z,170
2016-05-19T12:32:33.880Z,185
2016-05-19T12:33:34.211Z,185
2016-05-19T12:34:34.104Z,185
2016-05-19T12:35:34.153Z,180
2016-05-19T12:36:34.172Z,175
2016-05-19T12:37:34.222Z,175
2016-05-19T12:38:34.646Z,170
2016-05-19T12:39:35.555Z,160
2016-05-19T12:40:34.339Z,125
2016-05-19T12:41:34.389Z,115
2016-05-19T12:42:34.423Z,90
2016-05-19T12:43:36.081Z,90
2016-05-19T12:44:34.506Z,95
2016-05-19T12:45:34.539Z,95
2016-05-19T12:46:34.574Z,95
2016-05-19T12:47:34.624Z,100
2016-05-19T12:48:34.657Z,105
2016-05-19T12:49:34.550Z,105
2016-05-19T12:50:34.741Z,100
2016-05-19T12:51:34.791Z,100
2016-05-19T12:52:34.808Z,95
2016-05-19T12:53:36.374Z,95
2016-05-19T12:54:35.408Z,95
2016-05-19T12:55:34.941Z,90
2016-05-19T12:56:34.960Z,95
2016-05-19T12:57:35.010Z,100
2016-05-19T12:58:36.403Z,90
2016-05-19T12:59:35.078Z,100
2016-05-19T13:00:34.971Z,100
2016-05-19T13:01:35.037Z,95
2016-05-19T13:02:35.195Z,95
2016-05-19T13:03:36.432Z,110
2016-05-19T13:04:35.262Z,115
2016-05-19T13:05:35.312Z,120
2016-05-19T13:06:35.362Z,125
2016-05-19T13:07:35.396Z,125
2016-05-19T13:08:37.040Z,125
2016-05-19T13:09:35.636Z,130
2016-05-19T13:10:35.201Z,115
2016-05-19T13:11:35.563Z,125
2016-05-19T13:12:35.597Z,120
2016-05-19T13:13:37.084Z,120
2016-05-19T13:14:35.400Z,120
2016-05-19T13:15:35.699Z,120
2016-05-19T13:16:35.747Z,120
2016-05-19T13:17:35.782Z,120
2016-05-19T13:18:36.848Z,120
2016-05-19T13:19:35.866Z,120
2016-05-19T13:20:35.588Z,120
2016-05-19T13:21:35.949Z,120
2016-05-19T13:22:35.983Z,120
2016-05-19T13:23:35.924Z,120
2016-05-19T13:24:36.082Z,115
2016-05-19T13:25:35.929Z,100
2016-05-19T13:26:36.150Z,120
2016-05-19T13:27:36.169Z,120
2016-05-19T13:28:36.235Z,115
2016-05-19T13:29:36.236Z,120
2016-05-19T13:30:36.285Z,120
2016-05-19T13:31:36.163Z,120
2016-05-19T13:32:36.354Z,120
2016-05-19T13:33:40.309Z,120
2016-05-19T13:34:36.437Z,125
2016-05-19T13:35:36.331Z,125
2016-05-19T13:36:36.521Z,125
2016-05-19T13:37:36.570Z,125
2016-05-19T13:38:40.042Z,130
2016-05-19T13:39:36.342Z,135
2016-05-19T13:40:36.547Z,135
2016-05-19T13:41:36.722Z,135
2016-05-19T13:42:36.740Z,135
2016-05-19T13:43:36.806Z,140
2016-05-19T13:44:36.823Z,135
2016-05-19T13:45:36.873Z,125
2016-05-19T13:46:36.908Z,130
2016-05-19T13:47:36.941Z,130
2016-05-19T13:48:37.866Z,130
2016-05-19T13:49:37.025Z,140
2016-05-19T13:50:36.902Z,140
2016-05-19T13:51:37.092Z,140
2016-05-19T13:52:37.142Z,140
2016-05-19T13:53:38.504Z,130
2016-05-19T13:54:36.913Z,130
2016-05-19T13:55:37.260Z,135
2016-05-19T13:56:37.293Z,135
2016-05-19T13:57:37.327Z,135
2016-05-19T13:58:39.174Z,115
2016-05-19T13:59:37.410Z,110
2016-05-19T14:00:37.460Z,105
2016-05-19T14:01:37.493Z,100
2016-05-19T14:02:37.513Z,105
2016-05-19T14:03:40.984Z,100
2016-05-19T14:04:37.612Z,105
2016-05-19T14:05:37.646Z,105
2016-05-19T14:06:37.695Z,110
2016-05-19T14:07:37.714Z,110
2016-05-19T14:08:37.825Z,110
2016-05-19T14:09:38.484Z,110
2016-05-19T14:10:37.863Z,105
2016-05-19T14:11:37.756Z,105
2016-05-19T14:12:37.773Z,110
2016-05-19T14:13:39.121Z,100
2016-05-19T14:14:37.858Z,100
2016-05-19T14:15:38.047Z,90
2016-05-19T14:16:37.942Z,90
2016-05-19T14:17:38.116Z,85
2016-05-19T14:18:38.009Z,85